createdAt,value
2018-09-18T00:00:10.079Z,55.30
2018-09-18T00:02:36.062Z,55.26
2018-09-18T00:05:02.038Z,55.16
2018-09-18T00:07:28.056Z,55.24
2018-09-18T00:09:54.036Z,55.12
2018-09-18T00:12:20.054Z,55.10
2018-09-18T00:14:46.029Z,55.11
2018-09-18T00:17:12.000Z,55.11
2018-09-18T00:19:37.983Z,55.06
2018-09-18T00:22:03.952Z,55.03
2018-09-18T00:24:29.939Z,54.97
2018-09-18T00:26:55.954Z,54.94
2018-09-18T00:29:21.925Z,54.87
2018-09-18T00:31:47.903Z,54.87
2018-09-18T00:34:13.927Z,54.84
2018-09-18T00:36:39.912Z,54.78
2018-09-18T00:39:05.884Z,54.77
2018-09-18T00:41:31.861Z,54.74
2018-09-18T00:43:57.842Z,54.73
2018-09-18T00:46:23.824Z,54.67
2018-09-18T00:48:49.828Z,54.65
2018-09-18T00:51:15.811Z,54.59
2018-09-18T00:53:41.787Z,54.61
2018-09-18T00:56:07.776Z,54.55
2018-09-18T00:58:33.764Z,54.50
2018-09-18T01:00:59.746Z,54.51
2018-09-18T01:03:25.720Z,54.47
2018-09-18T01:05:51.703Z,54.43
2018-09-18T01:08:17.690Z,54.43
2018-09-18T01:10:43.663Z,54.37
2018-09-18T01:13:09.643Z,54.33
2018-09-18T01:15:35.615Z,54.34
2018-09-18T01:18:01.593Z,54.29
2018-09-18T01:20:27.581Z,54.24
2018-09-18T01:22:53.647Z,54.23
2018-09-18T01:25:19.629Z,54.22
2018-09-18T01:27:45.606Z,54.20
2018-09-18T01:30:11.638Z,54.15
2018-09-18T01:32:37.615Z,54.14
2018-09-18T01:35:03.600Z,54.12
2018-09-18T01:37:29.598Z,54.10
2018-09-18T01:39:55.582Z,54.07
2018-09-18T01:42:21.558Z,54.03
2018-09-18T01:44:47.537Z,54.02
2018-09-18T01:47:13.512Z,54.00
2018-09-18T01:49:39.522Z,53.98
2018-09-18T01:52:05.503Z,53.96
2018-09-18T01:54:31.527Z,53.93
2018-09-18T01:56:57.503Z,53.91
2018-09-18T01:59:23.483Z,53.87
2018-09-18T02:01:49.465Z,53.86
2018-09-18T02:04:15.433Z,53.82
2018-09-18T02:06:41.421Z,53.81
2018-09-18T02:09:07.393Z,53.81
2018-09-18T02:11:33.379Z,53.75
2018-09-18T02:13:59.354Z,53.73
2018-09-18T02:16:25.343Z,53.73
2018-09-18T02:18:51.316Z,53.70
2018-09-18T02:21:17.290Z,53.67
2018-09-18T02:23:43.270Z,53.64
2018-09-18T02:26:09.289Z,53.63
2018-09-18T02:28:35.277Z,53.60
2018-09-18T02:31:01.254Z,53.58
2018-09-18T02:33:27.241Z,53.59
2018-09-18T02:35:53.219Z,53.59
2018-09-18T02:38:19.197Z,53.51
2018-09-18T02:40:45.178Z,53.57
2018-09-18T02:43:11.160Z,53.52
2018-09-18T02:45:37.148Z,53.46
2018-09-18T02:48:03.141Z,53.31
2018-09-18T02:50:29.119Z,53.35
2018-09-18T02:52:55.099Z,53.28
2018-09-18T02:55:21.074Z,53.22
2018-09-18T02:57:47.057Z,53.19
2018-09-18T03:00:13.042Z,53.11
2018-09-18T03:02:39.022Z,53.08
2018-09-18T03:05:05.003Z,52.95
2018-09-18T03:07:30.980Z,52.95
2018-09-18T03:09:56.952Z,52.93
2018-09-18T03:12:22.937Z,52.90
2018-09-18T03:14:48.914Z,52.90
2018-09-18T03:17:14.899Z,52.82
2018-09-18T03:19:40.877Z,52.81
2018-09-18T03:22:06.864Z,52.76
2018-09-18T03:24:32.845Z,52.78
2018-09-18T03:26:58.832Z,52.73
2018-09-18T03:29:24.814Z,52.67
2018-09-18T03:31:50.792Z,52.61
2018-09-18T03:34:16.764Z,52.62
2018-09-18T03:36:42.743Z,52.63
2018-09-18T03:39:08.732Z,52.54
2018-09-18T03:41:34.715Z,52.49
2018-09-18T03:44:00.742Z,52.51
2018-09-18T03:46:26.751Z,52.43
2018-09-18T03:48:52.694Z,52.45
2018-09-18T03:51:18.759Z,52.41
2018-09-18T03:53:44.752Z,52.35
2018-09-18T03:56:10.730Z,52.28
2018-09-18T03:58:36.755Z,52.36
2018-09-18T04:01:02.741Z,52.25
2018-09-18T04:03:28.722Z,52.24
2018-09-18T04:05:54.702Z,52.25
2018-09-18T04:08:20.673Z,52.21
2018-09-18T04:10:46.692Z,52.19
2018-09-18T04:13:12.670Z,52.25
2018-09-18T04:15:38.644Z,52.11
2018-09-18T04:18:04.660Z,52.29
2018-09-18T04:20:30.643Z,52.44
2018-09-18T04:22:56.701Z,52.31
2018-09-18T04:25:22.689Z,52.33
2018-09-18T04:27:48.668Z,52.36
2018-09-18T04:30:14.650Z,52.34
2018-09-18T04:32:40.635Z,52.25
2018-09-18T04:35:06.616Z,52.20
2018-09-18T04:37:32.618Z,52.23
2018-09-18T04:39:58.638Z,52.42
2018-09-18T04:42:24.647Z,52.29
2018-09-18T04:44:50.584Z,52.40
2018-09-18T04:47:16.674Z,52.38
2018-09-18T04:49:42.659Z,52.46
2018-09-18T04:52:08.636Z,52.56
2018-09-18T04:54:34.664Z,52.58
2018-09-18T04:57:00.654Z,52.69
2018-09-18T04:59:26.653Z,52.69
2018-09-18T05:01:52.655Z,52.72
2018-09-18T05:04:18.768Z,52.72
2018-09-18T05:06:44.849Z,52.69
2018-09-18T05:09:10.855Z,52.64
2018-09-18T05:11:36.864Z,52.58
2018-09-18T05:14:02.858Z,52.53
2018-09-18T05:16:28.861Z,52.61
2018-09-18T05:18:54.997Z,52.77
2018-09-18T05:21:20.981Z,53.02
2018-09-18T05:23:47.089Z,53.17
2018-09-18T05:26:13.025Z,53.30
2018-09-18T05:28:39.053Z,53.30
2018-09-18T05:31:05.029Z,53.42
2018-09-18T05:33:31.024Z,53.39
2018-09-18T05:35:57.004Z,53.51
2018-09-18T05:38:22.984Z,53.47
2018-09-18T05:40:48.960Z,53.53
2018-09-18T05:43:14.979Z,53.54
2018-09-18T05:45:40.962Z,53.65
2018-09-18T05:48:06.972Z,53.76
2018-09-18T05:50:32.952Z,53.71
2018-09-18T05:52:58.940Z,53.74
2018-09-18T05:55:24.922Z,53.78
2018-09-18T05:57:50.914Z,53.80
2018-09-18T06:00:16.931Z,53.82
2018-09-18T06:02:42.911Z,53.77
2018-09-18T06:05:08.923Z,53.67
2018-09-18T06:07:34.943Z,53.74
2018-09-18T06:10:00.942Z,53.71
2018-09-18T06:12:26.976Z,53.79
2018-09-18T06:14:52.936Z,53.86
2018-09-18T06:17:18.985Z,53.80
2018-09-18T06:19:45.000Z,53.82
2018-09-18T06:22:10.982Z,53.76
2018-09-18T06:24:36.964Z,53.92
2018-09-18T06:27:03.052Z,53.95
2018-09-18T06:29:29.239Z,54.13
2018-09-18T06:31:55.187Z,54.16
2018-09-18T06:34:21.219Z,54.19
2018-09-18T06:36:47.204Z,54.25
2018-09-18T06:39:13.206Z,54.17
2018-09-18T06:41:39.200Z,54.24
2018-09-18T06:44:05.311Z,54.51
2018-09-18T06:46:31.322Z,54.40
2018-09-18T06:48:57.299Z,54.57
2018-09-18T06:51:23.308Z,54.43
2018-09-18T06:53:49.290Z,54.31
2018-09-18T06:56:15.334Z,54.24
2018-09-18T06:58:41.353Z,54.35
2018-09-18T07:01:07.394Z,54.15
2018-09-18T07:03:33.382Z,54.06
2018-09-18T07:05:59.358Z,54.01
2018-09-18T07:08:25.370Z,53.93
2018-09-18T07:10:51.368Z,53.89
2018-09-18T07:13:17.355Z,54.00
2018-09-18T07:15:43.335Z,54.57
2018-09-18T07:18:09.352Z,53.84
2018-09-18T07:20:35.312Z,53.43
2018-09-18T07:23:01.351Z,54.10
2018-09-18T07:25:27.379Z,54.52
2018-09-18T07:27:53.423Z,54.45
2018-09-18T07:30:19.462Z,54.45
2018-09-18T07:32:45.449Z,54.40
2018-09-18T07:35:11.449Z,54.40
2018-09-18T07:37:37.444Z,53.84
2018-09-18T07:40:03.433Z,53.45
2018-09-18T07:42:29.425Z,53.02
2018-09-18T07:44:55.448Z,52.30
2018-09-18T07:47:21.401Z,51.67
2018-09-18T07:49:47.384Z,52.33
2018-09-18T07:52:13.391Z,52.96
2018-09-18T07:54:39.359Z,52.09
2018-09-18T07:57:05.353Z,52.80
2018-09-18T07:59:31.329Z,52.05
2018-09-18T08:01:57.309Z,52.23
2018-09-18T08:04:23.289Z,51.76
2018-09-18T08:06:49.266Z,51.91
2018-09-18T08:09:15.247Z,51.62
2018-09-18T08:11:41.239Z,51.90
2018-09-18T08:14:07.235Z,51.91
2018-09-18T08:16:33.228Z,51.91
2018-09-18T08:19:00.237Z,51.94
2018-09-18T08:21:26.121Z,51.92
2018-09-18T08:23:52.101Z,51.97
2018-09-18T08:26:18.103Z,52.03
2018-09-18T08:28:44.629Z,52.00
2018-09-18T08:31:10.574Z,52.07
2018-09-18T08:33:37.371Z,52.10
2018-09-18T08:36:03.632Z,52.00
2018-09-18T08:38:29.606Z,51.91
2018-09-18T08:40:56.809Z,51.91
2018-09-18T08:43:22.789Z,51.89
2018-09-18T08:45:48.791Z,51.75
2018-09-18T08:48:14.832Z,51.84
2018-09-18T08:50:40.849Z,51.81
2018-09-18T08:53:07.670Z,51.78
2018-09-18T08:55:33.638Z,51.74
2018-09-18T08:57:59.897Z,51.70
2018-09-18T09:00:25.894Z,51.73
2018-09-18T09:02:51.874Z,51.78
2018-09-18T09:05:17.846Z,51.83
2018-09-18T09:07:43.906Z,51.60
2018-09-18T09:10:09.865Z,51.64
2018-09-18T09:12:35.808Z,51.62
2018-09-18T09:15:01.824Z,51.22
2018-09-18T09:17:27.763Z,50.81
2018-09-18T09:19:53.750Z,50.25
2018-09-18T09:22:19.795Z,50.62
2018-09-18T09:24:45.725Z,50.50
2018-09-18T09:27:11.723Z,50.45
2018-09-18T09:29:37.746Z,50.49
2018-09-18T09:32:03.677Z,49.95
2018-09-18T09:34:29.654Z,50.09
2018-09-18T09:36:55.722Z,50.05
2018-09-18T09:39:21.626Z,49.74
2018-09-18T09:41:47.710Z,50.01
2018-09-18T09:44:13.693Z,49.21
2018-09-18T09:46:39.678Z,49.44
2018-09-18T09:49:05.648Z,49.34
2018-09-18T09:51:31.643Z,49.29
2018-09-18T09:53:57.709Z,49.40
2018-09-18T09:56:23.670Z,48.93
2018-09-18T09:58:49.669Z,49.21
2018-09-18T10:01:15.724Z,49.27
2018-09-18T10:03:41.656Z,49.20
2018-09-18T10:06:09.284Z,49.29
2018-09-18T10:08:35.285Z,49.33
2018-09-18T10:11:01.355Z,49.28
2018-09-18T10:13:27.266Z,49.15
2018-09-18T10:15:53.263Z,49.31
2018-09-18T10:18:19.284Z,49.33
2018-09-18T10:20:45.386Z,49.28
2018-09-18T10:23:11.428Z,49.13
2018-09-18T10:25:37.408Z,49.24
2018-09-18T10:28:03.404Z,49.23
2018-09-18T10:30:29.379Z,49.11
2018-09-18T10:32:55.401Z,49.33
2018-09-18T10:35:21.392Z,49.22
2018-09-18T10:37:47.370Z,49.05
2018-09-18T10:40:13.406Z,49.12
2018-09-18T10:42:39.434Z,49.11
2018-09-18T10:45:05.348Z,49.01
2018-09-18T10:47:31.395Z,49.27
2018-09-18T10:49:57.338Z,49.23
2018-09-18T10:52:23.311Z,49.04
2018-09-18T10:54:49.371Z,49.01
2018-09-18T10:57:15.354Z,49.05
2018-09-18T10:59:41.349Z,49.09
2018-09-18T11:02:07.400Z,48.97
2018-09-18T11:04:33.335Z,48.89
2018-09-18T11:06:59.377Z,48.93
2018-09-18T11:09:25.368Z,48.90
2018-09-18T11:11:51.325Z,48.73
2018-09-18T11:14:17.600Z,48.64
2018-09-18T11:16:43.367Z,48.70
2018-09-18T11:19:09.269Z,48.69
2018-09-18T11:21:35.326Z,48.43
2018-09-18T11:24:01.249Z,48.58
2018-09-18T11:26:27.288Z,48.31
2018-09-18T11:28:53.265Z,48.38
2018-09-18T11:31:19.318Z,48.44
2018-09-18T11:33:45.224Z,48.36
2018-09-18T11:36:11.231Z,48.47
2018-09-18T11:38:37.225Z,48.55
2018-09-18T11:41:03.223Z,48.64
2018-09-18T11:43:29.225Z,48.67
2018-09-18T11:45:55.324Z,48.47
2018-09-18T11:48:21.242Z,48.49
2018-09-18T11:50:47.246Z,48.17
2018-09-18T11:53:13.245Z,48.07
2018-09-18T11:55:39.242Z,47.98
2018-09-18T11:58:05.242Z,47.87
2018-09-18T12:00:31.246Z,47.95
2018-09-18T12:02:57.280Z,47.76
2018-09-18T12:05:23.247Z,47.74
2018-09-18T12:07:49.217Z,47.87
2018-09-18T12:10:15.214Z,47.70
2018-09-18T12:12:41.211Z,47.49
2018-09-18T12:15:07.200Z,47.51
2018-09-18T12:17:33.179Z,47.51
2018-09-18T12:19:59.221Z,47.74
2018-09-18T12:22:25.283Z,47.67
2018-09-18T12:24:51.308Z,47.43
2018-09-18T12:27:17.344Z,47.51
2018-09-18T12:29:43.345Z,47.57
2018-09-18T12:32:09.347Z,47.59
2018-09-18T12:34:35.346Z,47.44
2018-09-18T12:37:01.383Z,47.46
2018-09-18T12:39:27.387Z,47.29
2018-09-18T12:41:53.464Z,47.23
2018-09-18T12:44:19.353Z,47.36
2018-09-18T12:46:45.331Z,47.23
2018-09-18T12:49:11.353Z,47.08
2018-09-18T12:51:37.337Z,47.16
2018-09-18T12:54:03.336Z,46.86
2018-09-18T12:56:29.310Z,47.24
2018-09-18T12:58:55.367Z,46.38
2018-09-18T13:01:21.292Z,46.72
2018-09-18T13:03:47.270Z,46.90
2018-09-18T13:06:13.327Z,46.61
2018-09-18T13:08:39.275Z,46.34
2018-09-18T13:11:05.274Z,46.23
2018-09-18T13:13:31.284Z,46.17
2018-09-18T13:15:57.253Z,46.37
2018-09-18T13:18:23.341Z,46.55
2018-09-18T13:20:49.271Z,46.81
2018-09-18T13:23:15.282Z,46.54
2018-09-18T13:25:41.241Z,46.68
2018-09-18T13:28:07.241Z,46.24
2018-09-18T13:30:33.342Z,46.89
2018-09-18T13:32:59.228Z,46.47
2018-09-18T13:35:25.229Z,46.25
2018-09-18T13:37:51.211Z,46.17
2018-09-18T13:40:17.210Z,45.93
2018-09-18T13:42:43.228Z,46.08
2018-09-18T13:45:09.215Z,45.98
2018-09-18T13:47:35.194Z,45.47
2018-09-18T13:50:01.195Z,44.97
2018-09-18T13:52:27.196Z,45.13
2018-09-18T13:54:53.229Z,45.72
2018-09-18T13:57:19.230Z,45.95
2018-09-18T13:59:45.242Z,46.04
2018-09-18T14:02:11.259Z,46.01
2018-09-18T14:04:37.236Z,46.12
2018-09-18T14:07:03.209Z,46.47
2018-09-18T14:09:29.279Z,46.25
2018-09-18T14:11:55.182Z,46.73
2018-09-18T14:14:21.230Z,46.48
2018-09-18T14:16:47.174Z,46.79
2018-09-18T14:19:13.141Z,46.59
2018-09-18T14:21:39.141Z,47.08
2018-09-18T14:24:05.133Z,46.75
2018-09-18T14:26:31.230Z,46.83
2018-09-18T14:28:57.132Z,46.84
2018-09-18T14:31:23.178Z,47.08
2018-09-18T14:33:49.181Z,47.02
2018-09-18T14:36:16.030Z,47.40
2018-09-18T14:38:43.472Z,47.93
2018-09-18T14:41:09.988Z,47.89
2018-09-18T14:43:36.540Z,47.96
2018-09-18T14:46:03.172Z,48.05
2018-09-18T14:48:29.734Z,48.34
2018-09-18T14:50:55.695Z,48.55
2018-09-18T14:53:21.699Z,48.54
2018-09-18T14:55:47.841Z,48.48
2018-09-18T14:58:13.842Z,48.67
2018-09-18T15:00:39.860Z,48.63
2018-09-18T15:03:05.845Z,48.67
2018-09-18T15:05:31.829Z,48.58
2018-09-18T15:07:57.818Z,48.76
2018-09-18T15:10:23.831Z,48.76
2018-09-18T15:12:49.841Z,48.74
2018-09-18T15:15:15.817Z,48.86
2018-09-18T15:17:41.846Z,48.82
2018-09-18T15:20:07.800Z,48.77
2018-09-18T15:22:33.784Z,48.76
2018-09-18T15:24:59.835Z,48.78
2018-09-18T15:27:25.857Z,48.82
2018-09-18T15:29:51.859Z,48.83
2018-09-18T15:32:18.023Z,48.91
2018-09-18T15:34:43.863Z,48.96
2018-09-18T15:37:09.869Z,49.01
2018-09-18T15:39:35.922Z,48.74
2018-09-18T15:42:01.865Z,48.59
2018-09-18T15:44:27.877Z,48.64
2018-09-18T15:46:54.002Z,48.69
2018-09-18T15:49:19.983Z,48.81
2018-09-18T15:51:46.059Z,48.82
2018-09-18T15:54:12.031Z,48.83
2018-09-18T15:56:37.995Z,48.85
2018-09-18T15:59:04.008Z,48.93
2018-09-18T16:01:33.063Z,48.99
2018-09-18T16:03:59.241Z,49.06
2018-09-18T16:06:25.166Z,49.15
2018-09-18T16:08:51.147Z,49.23
2018-09-18T16:11:17.125Z,49.26
2018-09-18T16:13:43.110Z,49.35
2018-09-18T16:16:09.116Z,49.46
2018-09-18T16:18:35.087Z,49.50
2018-09-18T16:21:01.079Z,49.58
2018-09-18T16:23:27.088Z,49.65
2018-09-18T16:25:53.074Z,49.67
2018-09-18T16:28:19.073Z,49.70
2018-09-18T16:30:45.109Z,49.90
2018-09-18T16:33:11.058Z,49.91
2018-09-18T16:35:37.056Z,49.96
2018-09-18T16:38:03.065Z,50.11
2018-09-18T16:40:29.386Z,50.00
2018-09-18T16:42:55.349Z,50.04
2018-09-18T16:45:21.438Z,50.00
2018-09-18T16:47:47.398Z,50.02
2018-09-18T16:50:13.420Z,50.06
2018-09-18T16:52:39.484Z,50.08
2018-09-18T16:55:08.941Z,50.08
2018-09-18T16:57:37.650Z,50.08
2018-09-18T17:00:03.660Z,50.08
2018-09-18T17:02:29.820Z,50.19
2018-09-18T17:04:55.647Z,50.34
2018-09-18T17:07:21.741Z,50.39
2018-09-18T17:09:47.868Z,50.29
2018-09-18T17:12:13.948Z,50.26
2018-09-18T17:14:39.943Z,50.23
2018-09-18T17:17:05.928Z,50.34
2018-09-18T17:19:31.961Z,50.28
2018-09-18T17:21:57.896Z,50.26
2018-09-18T17:24:23.926Z,50.28
2018-09-18T17:26:49.862Z,50.31
2018-09-18T17:29:15.912Z,50.46
2018-09-18T17:31:41.910Z,50.67
2018-09-18T17:34:07.866Z,50.72
2018-09-18T17:36:33.873Z,50.83
2018-09-18T17:38:59.862Z,50.96
2018-09-18T17:41:25.876Z,50.97
2018-09-18T17:43:51.889Z,51.08
2018-09-18T17:46:17.898Z,51.10
2018-09-18T17:48:43.907Z,51.21
2018-09-18T17:51:09.971Z,51.30
2018-09-18T17:53:36.004Z,51.21
2018-09-18T17:56:02.033Z,51.19
2018-09-18T17:58:28.009Z,51.08
2018-09-18T18:00:54.003Z,51.19
2018-09-18T18:03:20.086Z,51.19
2018-09-18T18:05:46.120Z,51.08
2018-09-18T18:08:12.150Z,51.13
2018-09-18T18:10:38.192Z,51.14
2018-09-18T18:13:04.154Z,51.08
2018-09-18T18:15:30.153Z,51.07
2018-09-18T18:17:56.141Z,51.02
2018-09-18T18:20:22.211Z,51.08
2018-09-18T18:22:48.120Z,51.00
2018-09-18T18:25:14.149Z,50.98
2018-09-18T18:27:40.157Z,50.93
2018-09-18T18:30:06.141Z,50.87
2018-09-18T18:32:32.138Z,51.05
2018-09-18T18:34:58.117Z,51.05
2018-09-18T18:37:24.091Z,51.14
2018-09-18T18:39:50.081Z,51.10
2018-09-18T18:42:16.066Z,51.08
2018-09-18T18:44:42.068Z,51.01
2018-09-18T18:47:08.051Z,50.94
2018-09-18T18:49:34.044Z,50.93
2018-09-18T18:52:00.080Z,50.92
2018-09-18T18:54:26.115Z,51.16
2018-09-18T18:56:52.195Z,51.04
2018-09-18T18:59:18.115Z,51.11
2018-09-18T19:01:44.102Z,50.99
2018-09-18T19:04:10.085Z,51.05
2018-09-18T19:06:36.113Z,51.06
2018-09-18T19:09:02.117Z,51.04
2018-09-18T19:11:28.101Z,51.07
2018-09-18T19:13:54.098Z,51.09
2018-09-18T19:16:20.233Z,51.09
2018-09-18T19:18:47.374Z,51.08
2018-09-18T19:21:13.278Z,51.08
2018-09-18T19:23:39.347Z,51.10
2018-09-18T19:26:06.786Z,51.07
2018-09-18T19:28:32.780Z,51.08
2018-09-18T19:30:58.848Z,51.09
2018-09-18T19:33:25.025Z,51.10
2018-09-18T19:35:50.832Z,51.07
2018-09-18T19:38:16.836Z,51.08
2018-09-18T19:40:42.822Z,51.06
2018-09-18T19:43:09.008Z,51.06
2018-09-18T19:45:34.942Z,51.06
2018-09-18T19:48:00.962Z,51.04
2018-09-18T19:50:26.976Z,51.03
2018-09-18T19:52:52.984Z,51.03
2018-09-18T19:55:19.013Z,51.03
2018-09-18T19:57:45.005Z,51.02
2018-09-18T20:00:10.973Z,51.01
2018-09-18T20:02:36.960Z,51.00
2018-09-18T20:05:02.951Z,51.01
2018-09-18T20:07:28.940Z,51.01
2018-09-18T20:09:54.926Z,51.00
2018-09-18T20:12:20.944Z,51.02
2018-09-18T20:14:46.983Z,51.02
2018-09-18T20:17:12.936Z,51.02
2018-09-18T20:19:38.980Z,51.01
2018-09-18T20:22:05.099Z,51.02
2018-09-18T20:24:31.090Z,51.02
2018-09-18T20:26:57.083Z,51.00
2018-09-18T20:29:23.072Z,51.02
2018-09-18T20:31:49.065Z,51.00
2018-09-18T20:34:15.038Z,51.00
2018-09-18T20:36:41.031Z,51.01
2018-09-18T20:39:07.009Z,51.01
2018-09-18T20:41:33.061Z,51.01
2018-09-18T20:43:59.500Z,50.99
2018-09-18T20:46:25.467Z,50.99
2018-09-18T20:48:51.449Z,51.02
2018-09-18T20:51:17.432Z,51.00
2018-09-18T20:53:43.420Z,51.00
2018-09-18T20:56:09.404Z,50.99
2018-09-18T20:58:35.399Z,51.00
2018-09-18T21:01:01.583Z,50.99
2018-09-18T21:03:27.659Z,51.00
2018-09-18T21:05:53.639Z,50.99
2018-09-18T21:08:19.645Z,50.97
2018-09-18T21:10:45.667Z,50.98
2018-09-18T21:13:11.667Z,50.98
2018-09-18T21:15:37.636Z,50.99
2018-09-18T21:18:03.621Z,50.97
2018-09-18T21:20:29.732Z,50.98
2018-09-18T21:22:55.744Z,50.97
2018-09-18T21:25:21.719Z,50.98
2018-09-18T21:27:47.704Z,50.98
2018-09-18T21:30:13.723Z,50.98
2018-09-18T21:32:39.872Z,50.96
2018-09-18T21:35:05.826Z,50.95
2018-09-18T21:37:31.807Z,50.94
2018-09-18T21:39:57.783Z,50.96
2018-09-18T21:42:23.779Z,50.94
2018-09-18T21:44:49.760Z,50.93
2018-09-18T21:47:15.736Z,50.94
2018-09-18T21:49:41.850Z,50.92
2018-09-18T21:52:07.917Z,50.91
2018-09-18T21:54:33.933Z,50.90
2018-09-18T21:56:59.970Z,50.91
2018-09-18T21:59:25.963Z,50.88
2018-09-18T22:01:51.944Z,50.90
2018-09-18T22:04:17.927Z,50.87
2018-09-18T22:06:43.922Z,50.87
2018-09-18T22:09:09.935Z,50.84
2018-09-18T22:11:35.930Z,50.84
2018-09-18T22:14:01.913Z,50.82
2018-09-18T22:16:27.901Z,50.80
2018-09-18T22:18:53.869Z,50.79
2018-09-18T22:21:19.852Z,50.79
2018-09-18T22:23:45.834Z,50.78
2018-09-18T22:26:11.815Z,50.77
2018-09-18T22:28:37.808Z,50.78
2018-09-18T22:31:03.783Z,50.76
2018-09-18T22:33:29.769Z,50.68
2018-09-18T22:35:55.750Z,50.72
2018-09-18T22:38:21.764Z,50.72
2018-09-18T22:40:47.747Z,50.71
2018-09-18T22:43:13.820Z,50.69
2018-09-18T22:45:39.749Z,50.71
2018-09-18T22:48:05.695Z,50.68
2018-09-18T22:50:31.675Z,50.68
2018-09-18T22:52:57.663Z,50.64
2018-09-18T22:55:23.639Z,50.64
2018-09-18T22:57:49.633Z,50.64
2018-09-18T23:00:15.639Z,50.62
2018-09-18T23:02:41.621Z,50.63
2018-09-18T23:05:07.610Z,50.62
2018-09-18T23:07:33.581Z,50.59
2018-09-18T23:09:59.600Z,50.58
2018-09-18T23:12:25.558Z,50.56
2018-09-18T23:14:51.531Z,50.58
2018-09-18T23:17:17.523Z,50.56
2018-09-18T23:19:43.496Z,50.57
2018-09-18T23:22:09.474Z,50.54
2018-09-18T23:24:35.499Z,50.55
2018-09-18T23:27:01.483Z,50.53
2018-09-18T23:29:27.468Z,50.52
2018-09-18T23:31:53.447Z,50.51
2018-09-18T23:34:19.433Z,50.50
2018-09-18T23:36:45.423Z,50.52
2018-09-18T23:39:11.414Z,50.49
2018-09-18T23:41:37.393Z,50.49
2018-09-18T23:44:03.455Z,50.47
2018-09-18T23:46:29.469Z,50.47
2018-09-18T23:48:55.410Z,50.45
2018-09-18T23:51:21.397Z,50.47
2018-09-18T23:53:47.370Z,50.43
2018-09-18T23:56:13.361Z,50.47
2018-09-18T23:58:39.334Z,50.45
